Flugplatz Paderborn Lippstadt

Bericht für EDLP

vom 09.08. um 05:20 UTC

Wind 3 kt aus 170°

Sichtweite 10 km oder mehr

gute Sicht, keine Wolken < 5000 ft, keine CB, keine Wettererscheinungen (CAVOK)

Temperatur 12.0°C

Taupunkt 11.0°C

Luftfeuchtigkeit 94%

Luftdruck 1027 hPa

EDLP 090520Z 17003KT CAVOK 12/11 Q1027

Prognose für EDLP

vom 09.08. um 05:00 UTC

Zwischen 06:00 UTC und 07:00 UTC

variable Windrichtung mit 3 kt

Sichtweite 10 km oder mehr

keine signifikanten Wettererscheinungen

keine Wolken


Zwischen 07:00 und 10:00 UTC übergehend zu

Wind 7 kt aus 50°

Sichtweite 10 km oder mehr

keine signifikanten Wettererscheinungen

keine Wolken


Zwischen 19:00 und 22:00 UTC übergehend zu

Wind 4 kt aus 120°

Sichtweite 10 km oder mehr

keine signifikanten Wettererscheinungen

keine Wolken

TAF EDLP 090500Z 0906/1006 VRB03KT CAVOK BECMG 0907/0910 05007KT BECMG 0919/0922 12004KT
Impressum